sensor_id;sensor_type;location;lat;lon;timestamp;temperature;humidity
2447;DHT22;26430;48.818;9.244;2023-12-20T00:00:20;9.70;99.90
2447;DHT22;26430;48.818;9.244;2023-12-20T00:02:45;9.70;99.90
2447;DHT22;26430;48.818;9.244;2023-12-20T00:05:13;9.80;99.90
2447;DHT22;26430;48.818;9.244;2023-12-20T00:07:39;9.80;99.90
2447;DHT22;26430;48.818;9.244;2023-12-20T00:10:05;9.80;99.90
2447;DHT22;26430;48.818;9.244;2023-12-20T00:12:30;9.80;99.90
2447;DHT22;26430;48.818;9.244;2023-12-20T00:14:56;9.80;99.90
2447;DHT22;26430;48.818;9.244;2023-12-20T00:17:21;9.90;99.90
2447;DHT22;26430;48.818;9.244;2023-12-20T00:19:47;9.90;99.90
2447;DHT22;26430;48.818;9.244;2023-12-20T00:22:12;9.80;99.90
2447;DHT22;26430;48.818;9.244;2023-12-20T00:24:38;9.80;99.90
2447;DHT22;26430;48.818;9.244;2023-12-20T00:27:04;9.80;99.90
2447;DHT22;26430;48.818;9.244;2023-12-20T00:29:29;9.80;99.90
2447;DHT22;26430;48.818;9.244;2023-12-20T00:31:55;9.90;99.90
2447;DHT22;26430;48.818;9.244;2023-12-20T00:34:20;9.80;99.90
2447;DHT22;26430;48.818;9.244;2023-12-20T00:36:46;9.80;99.90
2447;DHT22;26430;48.818;9.244;2023-12-20T00:39:12;9.80;99.90
2447;DHT22;26430;48.818;9.244;2023-12-20T00:41:38;9.80;99.90
2447;DHT22;26430;48.818;9.244;2023-12-20T00:44:04;9.80;99.90
2447;DHT22;26430;48.818;9.244;2023-12-20T00:46:29;9.70;99.90
2447;DHT22;26430;48.818;9.244;2023-12-20T00:48:55;9.70;99.90
2447;DHT22;26430;48.818;9.244;2023-12-20T00:51:20;9.70;99.90
2447;DHT22;26430;48.818;9.244;2023-12-20T00:53:48;9.80;99.90
2447;DHT22;26430;48.818;9.244;2023-12-20T00:56:14;9.80;99.90
2447;DHT22;26430;48.818;9.244;2023-12-20T00:58:40;9.80;99.90
2447;DHT22;26430;48.818;9.244;2023-12-20T01:01:05;9.80;99.90
2447;DHT22;26430;48.818;9.244;2023-12-20T01:03:31;9.70;99.90
2447;DHT22;26430;48.818;9.244;2023-12-20T01:05:57;9.70;99.90
2447;DHT22;26430;48.818;9.244;2023-12-20T01:08:22;9.60;99.90
2447;DHT22;26430;48.818;9.244;2023-12-20T01:10:48;9.60;99.90
2447;DHT22;26430;48.818;9.244;2023-12-20T01:13:14;9.60;99.90
2447;DHT22;26430;48.818;9.244;2023-12-20T01:15:39;9.60;99.90
2447;DHT22;26430;48.818;9.244;2023-12-20T01:18:05;9.50;99.90
2447;DHT22;26430;48.818;9.244;2023-12-20T01:20:30;9.40;99.90
2447;DHT22;26430;48.818;9.244;2023-12-20T01:22:56;9.40;99.90
2447;DHT22;26430;48.818;9.244;2023-12-20T01:25:22;9.30;99.90
2447;DHT22;26430;48.818;9.244;2023-12-20T01:27:47;9.30;99.90
2447;DHT22;26430;48.818;9.244;2023-12-20T01:30:13;9.30;99.90
2447;DHT22;26430;48.818;9.244;2023-12-20T01:32:39;9.30;99.90
2447;DHT22;26430;48.818;9.244;2023-12-20T01:35:04;9.20;99.90
2447;DHT22;26430;48.818;9.244;2023-12-20T01:37:30;9.30;99.90
2447;DHT22;26430;48.818;9.244;2023-12-20T01:39:56;9.30;99.90
2447;DHT22;26430;48.818;9.244;2023-12-20T01:42:21;9.30;99.90
2447;DHT22;26430;48.818;9.244;2023-12-20T01:44:47;9.20;99.90
2447;DHT22;26430;48.818;9.244;2023-12-20T01:47:13;9.20;99.90
2447;DHT22;26430;48.818;9.244;2023-12-20T01:49:39;9.20;99.90
2447;DHT22;26430;48.818;9.244;2023-12-20T01:52:05;9.20;99.90
2447;DHT22;26430;48.818;9.244;2023-12-20T01:54:31;9.20;99.90
2447;DHT22;26430;48.818;9.244;2023-12-20T01:56:57;9.10;99.90
2447;DHT22;26430;48.818;9.244;2023-12-20T01:59:22;9.10;99.90
2447;DHT22;26430;48.818;9.244;2023-12-20T02:01:48;9.10;99.90
2447;DHT22;26430;48.818;9.244;2023-12-20T02:04:14;9.20;99.90
2447;DHT22;26430;48.818;9.244;2023-12-20T02:06:40;9.20;99.90
2447;DHT22;26430;48.818;9.244;2023-12-20T02:09:08;9.20;99.90
2447;DHT22;26430;48.818;9.244;2023-12-20T02:11:34;9.20;99.90
2447;DHT22;26430;48.818;9.244;2023-12-20T02:14:01;9.10;99.90
2447;DHT22;26430;48.818;9.244;2023-12-20T02:16:27;9.20;99.90
2447;DHT22;26430;48.818;9.244;2023-12-20T02:18:53;9.20;99.90
2447;DHT22;26430;48.818;9.244;2023-12-20T02:21:20;9.10;99.90
2447;DHT22;26430;48.818;9.244;2023-12-20T02:23:45;9.10;99.90
2447;DHT22;26430;48.818;9.244;2023-12-20T02:26:11;9.10;99.90
2447;DHT22;26430;48.818;9.244;2023-12-20T02:28:36;9.10;99.90
2447;DHT22;26430;48.818;9.244;2023-12-20T02:31:02;9.10;99.90
2447;DHT22;26430;48.818;9.244;2023-12-20T02:33:28;9.10;99.90
2447;DHT22;26430;48.818;9.244;2023-12-20T02:35:53;9.10;99.90
2447;DHT22;26430;48.818;9.244;2023-12-20T02:38:19;9.20;99.90
2447;DHT22;26430;48.818;9.244;2023-12-20T02:40:44;9.20;99.90
2447;DHT22;26430;48.818;9.244;2023-12-20T02:43:10;9.20;99.90
2447;DHT22;26430;48.818;9.244;2023-12-20T02:45:35;9.20;99.90
2447;DHT22;26430;48.818;9.244;2023-12-20T02:48:02;9.10;99.90
2447;DHT22;26430;48.818;9.244;2023-12-20T02:50:27;9.10;99.90
2447;DHT22;26430;48.818;9.244;2023-12-20T02:52:53;9.10;99.90
2447;DHT22;26430;48.818;9.244;2023-12-20T02:55:18;9.10;99.90
2447;DHT22;26430;48.818;9.244;2023-12-20T02:57:44;9.10;99.90
2447;DHT22;26430;48.818;9.244;2023-12-20T03:00:10;9.00;99.90
2447;DHT22;26430;48.818;9.244;2023-12-20T03:02:36;9.00;99.90
2447;DHT22;26430;48.818;9.244;2023-12-20T03:05:02;9.10;99.90
2447;DHT22;26430;48.818;9.244;2023-12-20T03:07:28;9.10;99.90
2447;DHT22;26430;48.818;9.244;2023-12-20T03:09:53;9.10;99.90
2447;DHT22;26430;48.818;9.244;2023-12-20T03:12:19;9.10;99.90
2447;DHT22;26430;48.818;9.244;2023-12-20T03:14:44;9.10;99.90
2447;DHT22;26430;48.818;9.244;2023-12-20T03:17:10;9.10;99.90
2447;DHT22;26430;48.818;9.244;2023-12-20T03:19:36;9.20;99.90
2447;DHT22;26430;48.818;9.244;2023-12-20T03:22:02;9.20;99.90
2447;DHT22;26430;48.818;9.244;2023-12-20T03:24:27;9.20;99.90
2447;DHT22;26430;48.818;9.244;2023-12-20T03:26:53;9.20;99.90
2447;DHT22;26430;48.818;9.244;2023-12-20T03:29:19;9.20;99.90
2447;DHT22;26430;48.818;9.244;2023-12-20T03:31:44;9.20;99.90
2447;DHT22;26430;48.818;9.244;2023-12-20T03:34:11;9.20;99.90
2447;DHT22;26430;48.818;9.244;2023-12-20T03:36:36;9.10;99.90
2447;DHT22;26430;48.818;9.244;2023-12-20T03:39:02;9.20;99.90
2447;DHT22;26430;48.818;9.244;2023-12-20T03:41:28;9.20;99.90
2447;DHT22;26430;48.818;9.244;2023-12-20T03:43:53;9.20;99.90
2447;DHT22;26430;48.818;9.244;2023-12-20T03:46:19;9.30;99.90
2447;DHT22;26430;48.818;9.244;2023-12-20T03:48:45;9.20;99.90
2447;DHT22;26430;48.818;9.244;2023-12-20T03:51:10;9.20;99.90
2447;DHT22;26430;48.818;9.244;2023-12-20T03:53:36;9.20;99.90
2447;DHT22;26430;48.818;9.244;2023-12-20T03:56:01;9.20;99.90
2447;DHT22;26430;48.818;9.244;2023-12-20T03:58:27;9.30;99.90
2447;DHT22;26430;48.818;9.244;2023-12-20T04:00:52;9.20;99.90
2447;DHT22;26430;48.818;9.244;2023-12-20T04:03:18;9.20;99.90
2447;DHT22;26430;48.818;9.244;2023-12-20T04:05:43;9.20;99.90
2447;DHT22;26430;48.818;9.244;2023-12-20T04:08:09;9.30;99.90
2447;DHT22;26430;48.818;9.244;2023-12-20T04:10:35;9.20;99.90
2447;DHT22;26430;48.818;9.244;2023-12-20T04:13:00;9.20;99.90
2447;DHT22;26430;48.818;9.244;2023-12-20T04:15:26;9.30;99.90
2447;DHT22;26430;48.818;9.244;2023-12-20T04:17:52;9.20;99.90
2447;DHT22;26430;48.818;9.244;2023-12-20T04:20:17;9.30;99.90
2447;DHT22;26430;48.818;9.244;2023-12-20T04:22:43;9.20;99.90
2447;DHT22;26430;48.818;9.244;2023-12-20T04:25:08;9.10;99.90
2447;DHT22;26430;48.818;9.244;2023-12-20T04:27:35;9.20;99.90
2447;DHT22;26430;48.818;9.244;2023-12-20T04:30:00;9.10;99.90
2447;DHT22;26430;48.818;9.244;2023-12-20T04:32:26;9.20;99.90
2447;DHT22;26430;48.818;9.244;2023-12-20T04:34:51;9.00;99.90
2447;DHT22;26430;48.818;9.244;2023-12-20T04:37:17;9.00;99.90
2447;DHT22;26430;48.818;9.244;2023-12-20T04:39:42;9.00;99.90
2447;DHT22;26430;48.818;9.244;2023-12-20T04:42:08;9.10;99.90
2447;DHT22;26430;48.818;9.244;2023-12-20T04:44:33;9.10;99.90
2447;DHT22;26430;48.818;9.244;2023-12-20T04:46:59;9.10;99.90
2447;DHT22;26430;48.818;9.244;2023-12-20T04:49:25;9.00;99.90
2447;DHT22;26430;48.818;9.244;2023-12-20T04:51:51;9.10;99.90
2447;DHT22;26430;48.818;9.244;2023-12-20T04:54:16;9.10;99.90
2447;DHT22;26430;48.818;9.244;2023-12-20T04:56:42;9.10;99.90
2447;DHT22;26430;48.818;9.244;2023-12-20T04:59:07;9.10;99.90
2447;DHT22;26430;48.818;9.244;2023-12-20T05:01:33;9.10;99.90
2447;DHT22;26430;48.818;9.244;2023-12-20T05:03:59;9.10;99.90
2447;DHT22;26430;48.818;9.244;2023-12-20T05:06:24;9.10;99.90
2447;DHT22;26430;48.818;9.244;2023-12-20T05:08:50;9.10;99.90
2447;DHT22;26430;48.818;9.244;2023-12-20T05:11:15;9.10;99.90
2447;DHT22;26430;48.818;9.244;2023-12-20T05:13:41;9.10;99.90
2447;DHT22;26430;48.818;9.244;2023-12-20T05:16:06;9.20;99.90
2447;DHT22;26430;48.818;9.244;2023-12-20T05:18:32;9.10;99.90
2447;DHT22;26430;48.818;9.244;2023-12-20T05:20:58;9.10;99.90
2447;DHT22;26430;48.818;9.244;2023-12-20T05:23:24;9.10;99.90
2447;DHT22;26430;48.818;9.244;2023-12-20T05:25:49;9.20;99.90
2447;DHT22;26430;48.818;9.244;2023-12-20T05:28:15;9.20;99.90
2447;DHT22;26430;48.818;9.244;2023-12-20T05:30:40;9.10;99.90
2447;DHT22;26430;48.818;9.244;2023-12-20T05:33:06;9.20;99.90
2447;DHT22;26430;48.818;9.244;2023-12-20T05:35:31;9.20;99.90
2447;DHT22;26430;48.818;9.244;2023-12-20T05:37:57;9.20;99.90
2447;DHT22;26430;48.818;9.244;2023-12-20T05:40:22;9.20;99.90
2447;DHT22;26430;48.818;9.244;2023-12-20T05:42:49;9.10;99.90
2447;DHT22;26430;48.818;9.244;2023-12-20T05:45:15;9.20;99.90
2447;DHT22;26430;48.818;9.244;2023-12-20T05:47:40;9.20;99.90
2447;DHT22;26430;48.818;9.244;2023-12-20T05:50:06;9.20;99.90
2447;DHT22;26430;48.818;9.244;2023-12-20T05:52:32;9.20;99.90
2447;DHT22;26430;48.818;9.244;2023-12-20T05:54:57;9.20;99.90
2447;DHT22;26430;48.818;9.244;2023-12-20T05:57:26;9.20;99.90
2447;DHT22;26430;48.818;9.244;2023-12-20T05:59:52;9.20;99.90
2447;DHT22;26430;48.818;9.244;2023-12-20T06:02:18;9.20;99.90
2447;DHT22;26430;48.818;9.244;2023-12-20T06:04:43;9.20;99.90
2447;DHT22;26430;48.818;9.244;2023-12-20T06:07:11;9.30;99.90
2447;DHT22;26430;48.818;9.244;2023-12-20T06:09:37;9.30;99.90
2447;DHT22;26430;48.818;9.244;2023-12-20T06:12:03;9.20;99.90
2447;DHT22;26430;48.818;9.244;2023-12-20T06:14:28;9.20;99.90
2447;DHT22;26430;48.818;9.244;2023-12-20T06:16:56;9.20;99.90
2447;DHT22;26430;48.818;9.244;2023-12-20T06:19:21;9.10;99.90
2447;DHT22;26430;48.818;9.244;2023-12-20T06:21:47;9.10;99.90
2447;DHT22;26430;48.818;9.244;2023-12-20T06:24:13;9.10;99.90
2447;DHT22;26430;48.818;9.244;2023-12-20T06:26:38;9.10;99.90
2447;DHT22;26430;48.818;9.244;2023-12-20T06:29:04;9.20;99.90
2447;DHT22;26430;48.818;9.244;2023-12-20T06:31:29;9.20;99.90
2447;DHT22;26430;48.818;9.244;2023-12-20T06:33:55;9.20;99.90
2447;DHT22;26430;48.818;9.244;2023-12-20T06:36:23;9.20;99.90
2447;DHT22;26430;48.818;9.244;2023-12-20T06:38:50;9.20;99.90
2447;DHT22;26430;48.818;9.244;2023-12-20T06:41:15;9.20;99.90
2447;DHT22;26430;48.818;9.244;2023-12-20T06:43:42;9.20;99.90
2447;DHT22;26430;48.818;9.244;2023-12-20T06:46:07;9.20;99.90
2447;DHT22;26430;48.818;9.244;2023-12-20T06:48:34;9.20;99.90
2447;DHT22;26430;48.818;9.244;2023-12-20T06:51:00;9.20;99.90
2447;DHT22;26430;48.818;9.244;2023-12-20T06:53:27;9.20;99.90
2447;DHT22;26430;48.818;9.244;2023-12-20T06:55:53;9.20;99.90
2447;DHT22;26430;48.818;9.244;2023-12-20T06:58:18;9.20;99.90
2447;DHT22;26430;48.818;9.244;2023-12-20T07:00:44;9.20;99.90
2447;DHT22;26430;48.818;9.244;2023-12-20T07:03:09;9.20;99.90
2447;DHT22;26430;48.818;9.244;2023-12-20T07:05:35;9.20;99.90
2447;DHT22;26430;48.818;9.244;2023-12-20T07:08:01;9.10;99.90
2447;DHT22;26430;48.818;9.244;2023-12-20T07:10:26;9.10;99.90
2447;DHT22;26430;48.818;9.244;2023-12-20T07:12:52;9.10;99.90
2447;DHT22;26430;48.818;9.244;2023-12-20T07:15:21;9.10;99.90
2447;DHT22;26430;48.818;9.244;2023-12-20T07:17:46;9.20;99.90
2447;DHT22;26430;48.818;9.244;2023-12-20T07:20:12;9.30;99.90
2447;DHT22;26430;48.818;9.244;2023-12-20T07:22:38;9.30;99.90
2447;DHT22;26430;48.818;9.244;2023-12-20T07:25:04;9.30;99.90
2447;DHT22;26430;48.818;9.244;2023-12-20T07:27:30;9.30;99.90
2447;DHT22;26430;48.818;9.244;2023-12-20T07:29:55;9.30;99.90
2447;DHT22;26430;48.818;9.244;2023-12-20T07:32:21;9.40;99.90
2447;DHT22;26430;48.818;9.244;2023-12-20T07:34:46;9.40;99.90
2447;DHT22;26430;48.818;9.244;2023-12-20T07:37:12;9.40;99.90
2447;DHT22;26430;48.818;9.244;2023-12-20T07:39:39;9.40;99.90
2447;DHT22;26430;48.818;9.244;2023-12-20T07:42:06;9.40;99.90
2447;DHT22;26430;48.818;9.244;2023-12-20T07:44:31;9.50;99.90
2447;DHT22;26430;48.818;9.244;2023-12-20T07:46:57;9.40;99.90
2447;DHT22;26430;48.818;9.244;2023-12-20T07:49:23;9.50;99.90
2447;DHT22;26430;48.818;9.244;2023-12-20T07:51:49;9.50;99.90
2447;DHT22;26430;48.818;9.244;2023-12-20T07:54:15;9.50;99.90
2447;DHT22;26430;48.818;9.244;2023-12-20T07:56:41;9.50;99.90
2447;DHT22;26430;48.818;9.244;2023-12-20T07:59:06;9.40;99.90
2447;DHT22;26430;48.818;9.244;2023-12-20T08:01:32;9.40;99.90
2447;DHT22;26430;48.818;9.244;2023-12-20T08:03:58;9.40;99.90
2447;DHT22;26430;48.818;9.244;2023-12-20T08:06:23;9.50;99.90
2447;DHT22;26430;48.818;9.244;2023-12-20T08:08:49;9.40;99.90
2447;DHT22;26430;48.818;9.244;2023-12-20T08:11:15;9.30;99.90
2447;DHT22;26430;48.818;9.244;2023-12-20T08:13:40;9.30;99.90
2447;DHT22;26430;48.818;9.244;2023-12-20T08:16:06;9.40;99.90
2447;DHT22;26430;48.818;9.244;2023-12-20T08:18:31;9.40;99.90
2447;DHT22;26430;48.818;9.244;2023-12-20T08:20:57;9.30;99.90
2447;DHT22;26430;48.818;9.244;2023-12-20T08:23:22;9.30;99.90
2447;DHT22;26430;48.818;9.244;2023-12-20T08:25:49;9.20;99.90
2447;DHT22;26430;48.818;9.244;2023-12-20T08:28:14;9.30;99.90
2447;DHT22;26430;48.818;9.244;2023-12-20T08:30:40;9.20;99.90
2447;DHT22;26430;48.818;9.244;2023-12-20T08:33:06;9.30;99.90
2447;DHT22;26430;48.818;9.244;2023-12-20T08:35:36;9.20;99.90
2447;DHT22;26430;48.818;9.244;2023-12-20T08:38:02;9.30;99.90
2447;DHT22;26430;48.818;9.244;2023-12-20T08:40:29;9.30;99.90
2447;DHT22;26430;48.818;9.244;2023-12-20T08:42:55;9.20;99.90
2447;DHT22;26430;48.818;9.244;2023-12-20T08:45:20;9.30;99.90
2447;DHT22;26430;48.818;9.244;2023-12-20T08:47:46;9.30;99.90
2447;DHT22;26430;48.818;9.244;2023-12-20T08:50:12;9.30;99.90
2447;DHT22;26430;48.818;9.244;2023-12-20T08:52:37;9.20;99.90
2447;DHT22;26430;48.818;9.244;2023-12-20T08:55:03;9.20;99.90
2447;DHT22;26430;48.818;9.244;2023-12-20T08:57:29;9.30;99.90
2447;DHT22;26430;48.818;9.244;2023-12-20T08:59:57;9.30;99.90
2447;DHT22;26430;48.818;9.244;2023-12-20T09:02:22;9.30;99.90
2447;DHT22;26430;48.818;9.244;2023-12-20T09:04:48;9.40;99.90
2447;DHT22;26430;48.818;9.244;2023-12-20T09:07:23;9.30;99.90
2447;DHT22;26430;48.818;9.244;2023-12-20T09:09:49;9.40;99.90
2447;DHT22;26430;48.818;9.244;2023-12-20T09:12:16;9.40;99.90
2447;DHT22;26430;48.818;9.244;2023-12-20T09:14:42;9.40;99.90
2447;DHT22;26430;48.818;9.244;2023-12-20T09:17:08;9.50;99.90
2447;DHT22;26430;48.818;9.244;2023-12-20T09:19:34;9.40;99.90
2447;DHT22;26430;48.818;9.244;2023-12-20T09:21:59;9.50;99.90
2447;DHT22;26430;48.818;9.244;2023-12-20T09:24:25;9.50;99.90
2447;DHT22;26430;48.818;9.244;2023-12-20T09:26:50;9.50;99.90
2447;DHT22;26430;48.818;9.244;2023-12-20T09:29:16;9.50;99.90
2447;DHT22;26430;48.818;9.244;2023-12-20T09:31:42;9.50;99.90
2447;DHT22;26430;48.818;9.244;2023-12-20T09:34:09;9.60;99.90
2447;DHT22;26430;48.818;9.244;2023-12-20T09:36:34;9.50;99.90
2447;DHT22;26430;48.818;9.244;2023-12-20T09:39:01;9.60;99.90
2447;DHT22;26430;48.818;9.244;2023-12-20T09:41:29;9.70;99.90
2447;DHT22;26430;48.818;9.244;2023-12-20T09:44:00;9.70;99.90
2447;DHT22;26430;48.818;9.244;2023-12-20T09:46:28;9.80;99.90
2447;DHT22;26430;48.818;9.244;2023-12-20T09:48:59;9.80;99.90
2447;DHT22;26430;48.818;9.244;2023-12-20T09:51:27;9.90;99.90
2447;DHT22;26430;48.818;9.244;2023-12-20T09:53:54;9.90;99.90
2447;DHT22;26430;48.818;9.244;2023-12-20T09:56:21;9.90;99.90
2447;DHT22;26430;48.818;9.244;2023-12-20T09:58:47;9.90;99.90
2447;DHT22;26430;48.818;9.244;2023-12-20T10:01:14;10.00;99.90
2447;DHT22;26430;48.818;9.244;2023-12-20T10:03:41;9.90;99.90
2447;DHT22;26430;48.818;9.244;2023-12-20T10:06:07;10.00;99.90
2447;DHT22;26430;48.818;9.244;2023-12-20T10:08:32;9.90;99.90
2447;DHT22;26430;48.818;9.244;2023-12-20T10:10:58;10.00;99.90
2447;DHT22;26430;48.818;9.244;2023-12-20T10:13:28;10.10;99.90
2447;DHT22;26430;48.818;9.244;2023-12-20T10:15:55;10.10;99.90
2447;DHT22;26430;48.818;9.244;2023-12-20T10:18:20;10.00;99.90
2447;DHT22;26430;48.818;9.244;2023-12-20T10:20:47;10.10;99.90
2447;DHT22;26430;48.818;9.244;2023-12-20T10:23:13;10.10;99.90
2447;DHT22;26430;48.818;9.244;2023-12-20T10:25:40;10.00;99.90
2447;DHT22;26430;48.818;9.244;2023-12-20T10:28:13;10.00;99.90
2447;DHT22;26430;48.818;9.244;2023-12-20T10:30:40;10.00;99.90
2447;DHT22;26430;48.818;9.244;2023-12-20T10:33:07;10.00;99.90
2447;DHT22;26430;48.818;9.244;2023-12-20T10:35:34;10.00;99.90
2447;DHT22;26430;48.818;9.244;2023-12-20T10:38:04;10.00;99.90
2447;DHT22;26430;48.818;9.244;2023-12-20T10:40:31;10.00;99.90
2447;DHT22;26430;48.818;9.244;2023-12-20T10:42:58;10.00;99.90
2447;DHT22;26430;48.818;9.244;2023-12-20T10:45:24;10.00;99.90
2447;DHT22;26430;48.818;9.244;2023-12-20T10:47:51;9.90;99.90
2447;DHT22;26430;48.818;9.244;2023-12-20T10:50:18;10.00;99.90
2447;DHT22;26430;48.818;9.244;2023-12-20T10:52:46;9.90;99.90
2447;DHT22;26430;48.818;9.244;2023-12-20T10:55:12;9.80;99.90
2447;DHT22;26430;48.818;9.244;2023-12-20T10:57:38;9.80;99.90
2447;DHT22;26430;48.818;9.244;2023-12-20T11:00:06;9.80;99.90
2447;DHT22;26430;48.818;9.244;2023-12-20T11:02:38;9.80;99.90
2447;DHT22;26430;48.818;9.244;2023-12-20T11:08:38;9.70;99.90
2447;DHT22;26430;48.818;9.244;2023-12-20T11:11:09;9.70;99.90
2447;DHT22;26430;48.818;9.244;2023-12-20T11:13:43;9.80;99.90
2447;DHT22;26430;48.818;9.244;2023-12-20T11:16:13;9.90;99.90
2447;DHT22;26430;48.818;9.244;2023-12-20T11:18:40;9.80;99.90
2447;DHT22;26430;48.818;9.244;2023-12-20T11:21:06;9.80;99.90
2447;DHT22;26430;48.818;9.244;2023-12-20T11:23:32;9.80;99.90
2447;DHT22;26430;48.818;9.244;2023-12-20T11:26:02;9.90;99.90
2447;DHT22;26430;48.818;9.244;2023-12-20T11:28:28;9.80;99.90
2447;DHT22;26430;48.818;9.244;2023-12-20T11:30:58;9.80;99.90
2447;DHT22;26430;48.818;9.244;2023-12-20T11:33:30;9.80;99.90
2447;DHT22;26430;48.818;9.244;2023-12-20T11:35:56;9.90;99.90
2447;DHT22;26430;48.818;9.244;2023-12-20T11:38:22;9.80;99.90
2447;DHT22;26430;48.818;9.244;2023-12-20T11:40:49;9.90;99.90
2447;DHT22;26430;48.818;9.244;2023-12-20T11:43:37;9.80;99.90
2447;DHT22;26430;48.818;9.244;2023-12-20T11:46:06;9.80;99.90
2447;DHT22;26430;48.818;9.244;2023-12-20T11:48:34;9.80;99.90
2447;DHT22;26430;48.818;9.244;2023-12-20T11:51:00;9.80;99.90
2447;DHT22;26430;48.818;9.244;2023-12-20T11:53:25;9.80;99.90
2447;DHT22;26430;48.818;9.244;2023-12-20T11:55:51;9.90;99.90
2447;DHT22;26430;48.818;9.244;2023-12-20T11:58:17;9.90;99.90
2447;DHT22;26430;48.818;9.244;2023-12-20T12:00:43;9.90;99.90
2447;DHT22;26430;48.818;9.244;2023-12-20T12:03:09;9.90;99.90
2447;DHT22;26430;48.818;9.244;2023-12-20T12:05:34;9.90;99.90
2447;DHT22;26430;48.818;9.244;2023-12-20T12:08:01;9.80;99.90
2447;DHT22;26430;48.818;9.244;2023-12-20T12:10:26;9.80;99.90
2447;DHT22;26430;48.818;9.244;2023-12-20T12:12:52;9.80;99.90
2447;DHT22;26430;48.818;9.244;2023-12-20T12:15:18;9.80;99.90
2447;DHT22;26430;48.818;9.244;2023-12-20T12:17:43;9.70;99.90
2447;DHT22;26430;48.818;9.244;2023-12-20T12:20:09;9.70;99.90
2447;DHT22;26430;48.818;9.244;2023-12-20T12:22:35;9.70;99.90
2447;DHT22;26430;48.818;9.244;2023-12-20T12:25:12;9.70;99.90
2447;DHT22;26430;48.818;9.244;2023-12-20T12:27:43;9.70;99.90
2447;DHT22;26430;48.818;9.244;2023-12-20T12:30:09;9.60;99.90
2447;DHT22;26430;48.818;9.244;2023-12-20T12:32:36;9.70;99.90
2447;DHT22;26430;48.818;9.244;2023-12-20T12:35:05;9.70;99.90
2447;DHT22;26430;48.818;9.244;2023-12-20T12:37:35;9.80;99.90
2447;DHT22;26430;48.818;9.244;2023-12-20T12:40:04;9.90;99.90
2447;DHT22;26430;48.818;9.244;2023-12-20T12:42:30;9.90;99.90
2447;DHT22;26430;48.818;9.244;2023-12-20T12:44:56;9.90;99.90
2447;DHT22;26430;48.818;9.244;2023-12-20T12:47:22;9.90;99.90
2447;DHT22;26430;48.818;9.244;2023-12-20T12:49:49;9.90;99.90
2447;DHT22;26430;48.818;9.244;2023-12-20T12:52:16;9.90;99.90
2447;DHT22;26430;48.818;9.244;2023-12-20T12:54:42;9.90;99.90
2447;DHT22;26430;48.818;9.244;2023-12-20T12:57:08;9.90;99.90
2447;DHT22;26430;48.818;9.244;2023-12-20T12:59:33;9.90;99.90
2447;DHT22;26430;48.818;9.244;2023-12-20T13:01:59;10.00;99.90
2447;DHT22;26430;48.818;9.244;2023-12-20T13:04:24;9.90;99.90
2447;DHT22;26430;48.818;9.244;2023-12-20T13:06:50;9.90;99.90
2447;DHT22;26430;48.818;9.244;2023-12-20T13:09:15;10.00;99.90
2447;DHT22;26430;48.818;9.244;2023-12-20T13:11:41;10.00;99.90
2447;DHT22;26430;48.818;9.244;2023-12-20T13:14:06;10.00;99.90
2447;DHT22;26430;48.818;9.244;2023-12-20T13:16:36;10.00;99.90
2447;DHT22;26430;48.818;9.244;2023-12-20T13:19:01;10.00;99.90
2447;DHT22;26430;48.818;9.244;2023-12-20T13:21:27;9.90;99.90
2447;DHT22;26430;48.818;9.244;2023-12-20T13:23:52;10.00;99.90
2447;DHT22;26430;48.818;9.244;2023-12-20T13:26:19;9.80;99.90
2447;DHT22;26430;48.818;9.244;2023-12-20T13:28:44;10.00;99.90
2447;DHT22;26430;48.818;9.244;2023-12-20T13:31:10;10.00;99.90
2447;DHT22;26430;48.818;9.244;2023-12-20T13:33:35;10.00;99.90
2447;DHT22;26430;48.818;9.244;2023-12-20T13:36:01;10.00;99.90
2447;DHT22;26430;48.818;9.244;2023-12-20T13:38:27;10.00;99.90
2447;DHT22;26430;48.818;9.244;2023-12-20T13:40:52;9.90;99.90
2447;DHT22;26430;48.818;9.244;2023-12-20T13:43:18;9.80;99.90
2447;DHT22;26430;48.818;9.244;2023-12-20T13:45:46;9.90;99.90
2447;DHT22;26430;48.818;9.244;2023-12-20T13:48:12;9.90;99.90
2447;DHT22;26430;48.818;9.244;2023-12-20T13:50:37;9.90;99.90
2447;DHT22;26430;48.818;9.244;2023-12-20T13:53:03;9.90;99.90
2447;DHT22;26430;48.818;9.244;2023-12-20T13:55:29;9.90;99.90
2447;DHT22;26430;48.818;9.244;2023-12-20T13:57:56;10.00;99.90
2447;DHT22;26430;48.818;9.244;2023-12-20T14:00:22;10.00;99.90
2447;DHT22;26430;48.818;9.244;2023-12-20T14:02:48;10.00;99.90
2447;DHT22;26430;48.818;9.244;2023-12-20T14:05:14;10.00;99.90
2447;DHT22;26430;48.818;9.244;2023-12-20T14:07:45;10.00;99.90
2447;DHT22;26430;48.818;9.244;2023-12-20T14:10:12;10.00;99.90
2447;DHT22;26430;48.818;9.244;2023-12-20T14:12:39;10.00;99.90
2447;DHT22;26430;48.818;9.244;2023-12-20T14:15:05;10.00;99.90
2447;DHT22;26430;48.818;9.244;2023-12-20T14:17:39;10.00;99.90
2447;DHT22;26430;48.818;9.244;2023-12-20T14:20:06;9.90;99.90
2447;DHT22;26430;48.818;9.244;2023-12-20T14:22:32;9.80;99.90
2447;DHT22;26430;48.818;9.244;2023-12-20T14:24:58;9.80;99.90
2447;DHT22;26430;48.818;9.244;2023-12-20T14:27:23;9.80;99.90
2447;DHT22;26430;48.818;9.244;2023-12-20T14:29:53;9.90;99.90
2447;DHT22;26430;48.818;9.244;2023-12-20T14:32:19;9.90;99.90
2447;DHT22;26430;48.818;9.244;2023-12-20T14:34:44;9.90;99.90
2447;DHT22;26430;48.818;9.244;2023-12-20T14:37:10;9.80;99.90
2447;DHT22;26430;48.818;9.244;2023-12-20T14:39:35;9.80;99.90
2447;DHT22;26430;48.818;9.244;2023-12-20T14:42:07;9.70;99.90
2447;DHT22;26430;48.818;9.244;2023-12-20T14:44:36;9.70;99.90
2447;DHT22;26430;48.818;9.244;2023-12-20T14:47:02;9.80;99.90
2447;DHT22;26430;48.818;9.244;2023-12-20T14:49:28;9.70;99.90
2447;DHT22;26430;48.818;9.244;2023-12-20T14:51:53;9.70;99.90
2447;DHT22;26430;48.818;9.244;2023-12-20T14:54:19;9.70;99.90
2447;DHT22;26430;48.818;9.244;2023-12-20T14:56:46;9.80;99.90
2447;DHT22;26430;48.818;9.244;2023-12-20T14:59:12;9.70;99.90
2447;DHT22;26430;48.818;9.244;2023-12-20T15:01:37;9.60;99.90
2447;DHT22;26430;48.818;9.244;2023-12-20T15:04:05;9.70;99.90
2447;DHT22;26430;48.818;9.244;2023-12-20T15:06:31;9.60;99.90
2447;DHT22;26430;48.818;9.244;2023-12-20T15:08:57;9.60;99.90
2447;DHT22;26430;48.818;9.244;2023-12-20T15:11:23;9.70;99.90
2447;DHT22;26430;48.818;9.244;2023-12-20T15:13:48;9.70;99.90
2447;DHT22;26430;48.818;9.244;2023-12-20T15:16:20;9.60;99.90
2447;DHT22;26430;48.818;9.244;2023-12-20T15:18:46;9.60;99.90
2447;DHT22;26430;48.818;9.244;2023-12-20T15:21:11;9.50;99.90
2447;DHT22;26430;48.818;9.244;2023-12-20T15:23:37;9.50;99.90
2447;DHT22;26430;48.818;9.244;2023-12-20T15:26:03;9.50;99.90
2447;DHT22;26430;48.818;9.244;2023-12-20T15:28:30;9.60;99.90
2447;DHT22;26430;48.818;9.244;2023-12-20T15:30:55;9.50;99.90
2447;DHT22;26430;48.818;9.244;2023-12-20T15:33:22;9.50;99.90
2447;DHT22;26430;48.818;9.244;2023-12-20T15:35:48;9.50;99.90
2447;DHT22;26430;48.818;9.244;2023-12-20T15:38:13;9.50;99.90
2447;DHT22;26430;48.818;9.244;2023-12-20T15:40:39;9.50;99.90
2447;DHT22;26430;48.818;9.244;2023-12-20T15:43:04;9.50;99.90
2447;DHT22;26430;48.818;9.244;2023-12-20T15:45:30;9.50;99.90
2447;DHT22;26430;48.818;9.244;2023-12-20T15:47:56;9.50;99.90
2447;DHT22;26430;48.818;9.244;2023-12-20T15:50:21;9.50;99.90
2447;DHT22;26430;48.818;9.244;2023-12-20T15:52:47;9.60;99.90
2447;DHT22;26430;48.818;9.244;2023-12-20T15:55:13;9.70;99.90